LFLN

Saint-Yan Airport

Saint-Yan, France
TAF AMD LFLN 211512Z 2115/2124 32007KT 9999 BKN013
Issued Valid From Valid To
Jan-21 @ 15:12 UTC
(44 minutes ago)
Jan-21 @ 15:00 UTC
(56 minutes ago)
Jan-22 @ 00:00 UTC
(in 8 hours)
Jan-21 @ 15:00 to Jan-22 @ 00:00
TAF AMD LFLN 211512Z 2115/2124 32007KT 9999 BKN013
Wind Visibility Clouds
320° at 7 knots 10,000+ meters
  • Broken at 1,300' AGL
TAF AMD LFLN 211512Z 2115/2124 32007KT 9999 BKN013
Issued Jan-21 @ 15:12 UTC
(44 minutes ago)
Valid From Jan-21 @ 15:00 UTC
(56 minutes ago)
Valid To Jan-22 @ 00:00 UTC
(in 8 hours)
Jan-21 @ 15:00 - Jan-22 @ 00:00
Wind Visibility
320° at 7 knots 10,000+ meters
Clouds
  • Broken at 1,300' AGL